Main page
METAR-TAF:

METAR-TAF

Airports :

Newcastle upon Tyne, England

Newcastle Airport

latitude: 55-02N, longitude: 001-42W, elevation: 81 m

Current weather observation

The report was made 38 minutes ago, at 14:20 UTC
Wind 8 kt from the West/Southwest
Temperature 6°C
Humidity 70%
Pressure 1007 hPa
Visibility 10 km or more
Few clouds at a height of 2700 ft

METAR: EGNT 241420Z 25008KT 9999 FEW027 06/01 Q1007

Time: 14:58 (14:58 UTC)

Forecast

The report was made 3 hours and 58 minutes ago, at 11:00 UTC
Forecast valid from 24 at 12 UTC to 25 at 12 UTC
Wind 9 kt from the West
Visibility 10 km or more
Few clouds at a height of 1500 ft
Probability 30% :
Temporary
from 25 at 06 UTC to 25 at 12 UTC
Wind 15 kt from the West with gusts up to 25 kt

TAF: EGNT 241100Z 2412/2512 27009KT 9999 FEW015 PROB30 TEMPO 2506/2512 26015G25KT

Weather observations and forecasts of more than 4000 airports (METAR and TAF reports).

The available stations are represented by yellow and red dots on the map.

Hover mouse over dot to see the name of the station.

Then click to see weather observations and forecasts.

To change the map : click on the green buttons with a black cross to zoom in, on the green button with a dash to zoom out, or on the green arrows for adjacent maps.


METAR-TAF: